sensor_id;sensor_type;location;lat;lon;timestamp;temperature;humidity
33811;DHT22;20119;48.334;16.206;2023-05-10T00:01:09;12.60;99.90
33811;DHT22;20119;48.334;16.206;2023-05-10T00:03:44;12.60;99.90
33811;DHT22;20119;48.334;16.206;2023-05-10T00:06:17;12.60;99.90
33811;DHT22;20119;48.334;16.206;2023-05-10T00:08:49;12.60;99.90
33811;DHT22;20119;48.334;16.206;2023-05-10T00:11:20;12.50;99.90
33811;DHT22;20119;48.334;16.206;2023-05-10T00:13:51;12.40;99.90
33811;DHT22;20119;48.334;16.206;2023-05-10T00:16:19;12.30;99.90
33811;DHT22;20119;48.334;16.206;2023-05-10T00:18:53;12.30;99.90
33811;DHT22;20119;48.334;16.206;2023-05-10T00:21:23;12.30;99.90
33811;DHT22;20119;48.334;16.206;2023-05-10T00:23:51;12.30;99.90
33811;DHT22;20119;48.334;16.206;2023-05-10T00:26:21;12.30;99.90
33811;DHT22;20119;48.334;16.206;2023-05-10T00:28:49;12.10;99.90
33811;DHT22;20119;48.334;16.206;2023-05-10T00:31:16;12.10;99.90
33811;DHT22;20119;48.334;16.206;2023-05-10T00:33:52;12.00;99.90
33811;DHT22;20119;48.334;16.206;2023-05-10T00:36:29;12.00;99.90
33811;DHT22;20119;48.334;16.206;2023-05-10T00:39:00;12.00;99.90
33811;DHT22;20119;48.334;16.206;2023-05-10T00:41:34;12.00;99.90
33811;DHT22;20119;48.334;16.206;2023-05-10T00:44:03;12.00;99.90
33811;DHT22;20119;48.334;16.206;2023-05-10T00:46:34;12.00;99.90
33811;DHT22;20119;48.334;16.206;2023-05-10T00:49:04;12.00;99.90
33811;DHT22;20119;48.334;16.206;2023-05-10T00:51:34;12.00;99.90
33811;DHT22;20119;48.334;16.206;2023-05-10T00:54:06;12.00;99.90
33811;DHT22;20119;48.334;16.206;2023-05-10T00:56:36;12.00;99.90
33811;DHT22;20119;48.334;16.206;2023-05-10T00:59:16;12.00;99.90
33811;DHT22;20119;48.334;16.206;2023-05-10T01:01:48;12.00;99.90
33811;DHT22;20119;48.334;16.206;2023-05-10T01:04:17;12.00;99.90
33811;DHT22;20119;48.334;16.206;2023-05-10T01:06:46;12.10;99.90
33811;DHT22;20119;48.334;16.206;2023-05-10T01:09:15;12.00;99.90
33811;DHT22;20119;48.334;16.206;2023-05-10T01:11:50;11.90;99.90
33811;DHT22;20119;48.334;16.206;2023-05-10T01:14:50;12.00;99.90
33811;DHT22;20119;48.334;16.206;2023-05-10T01:17:40;11.90;99.90
33811;DHT22;20119;48.334;16.206;2023-05-10T01:20:42;11.80;99.90
33811;DHT22;20119;48.334;16.206;2023-05-10T01:23:49;11.70;99.90
33811;DHT22;20119;48.334;16.206;2023-05-10T01:30:40;11.60;99.90
33811;DHT22;20119;48.334;16.206;2023-05-10T01:33:24;11.60;99.90
33811;DHT22;20119;48.334;16.206;2023-05-10T01:36:05;11.60;99.90
33811;DHT22;20119;48.334;16.206;2023-05-10T01:38:47;11.60;99.90
33811;DHT22;20119;48.334;16.206;2023-05-10T01:41:28;11.60;99.90
33811;DHT22;20119;48.334;16.206;2023-05-10T01:44:10;11.60;99.90
33811;DHT22;20119;48.334;16.206;2023-05-10T01:46:50;11.50;99.90
33811;DHT22;20119;48.334;16.206;2023-05-10T01:49:26;11.50;99.90
33811;DHT22;20119;48.334;16.206;2023-05-10T01:52:12;11.50;99.90
33811;DHT22;20119;48.334;16.206;2023-05-10T01:54:48;11.50;99.90
33811;DHT22;20119;48.334;16.206;2023-05-10T01:57:20;11.40;99.90
33811;DHT22;20119;48.334;16.206;2023-05-10T01:59:57;11.40;99.90
33811;DHT22;20119;48.334;16.206;2023-05-10T02:02:28;11.40;99.90
33811;DHT22;20119;48.334;16.206;2023-05-10T02:05:05;11.40;99.90
33811;DHT22;20119;48.334;16.206;2023-05-10T02:07:37;11.40;99.90
33811;DHT22;20119;48.334;16.206;2023-05-10T02:10:09;11.30;99.90
33811;DHT22;20119;48.334;16.206;2023-05-10T02:12:42;11.30;99.90
33811;DHT22;20119;48.334;16.206;2023-05-10T02:15:22;11.30;99.90
33811;DHT22;20119;48.334;16.206;2023-05-10T02:18:03;11.30;99.90
33811;DHT22;20119;48.334;16.206;2023-05-10T02:20:35;11.30;99.90
33811;DHT22;20119;48.334;16.206;2023-05-10T02:23:04;11.30;99.90
33811;DHT22;20119;48.334;16.206;2023-05-10T02:25:35;11.20;99.90
33811;DHT22;20119;48.334;16.206;2023-05-10T02:28:06;11.10;99.90
33811;DHT22;20119;48.334;16.206;2023-05-10T02:30:37;11.10;99.90
33811;DHT22;20119;48.334;16.206;2023-05-10T02:33:09;11.20;99.90
33811;DHT22;20119;48.334;16.206;2023-05-10T02:35:55;11.10;99.90
33811;DHT22;20119;48.334;16.206;2023-05-10T02:38:30;11.10;99.90
33811;DHT22;20119;48.334;16.206;2023-05-10T02:41:10;11.00;99.90
33811;DHT22;20119;48.334;16.206;2023-05-10T02:43:40;11.00;99.90
33811;DHT22;20119;48.334;16.206;2023-05-10T02:46:10;10.90;99.90
33811;DHT22;20119;48.334;16.206;2023-05-10T02:48:39;10.90;99.90
33811;DHT22;20119;48.334;16.206;2023-05-10T02:51:09;10.80;99.90
33811;DHT22;20119;48.334;16.206;2023-05-10T02:53:44;10.70;99.90
33811;DHT22;20119;48.334;16.206;2023-05-10T02:56:24;10.80;99.90
33811;DHT22;20119;48.334;16.206;2023-05-10T02:59:02;10.80;99.90
33811;DHT22;20119;48.334;16.206;2023-05-10T03:01:35;10.80;99.90
33811;DHT22;20119;48.334;16.206;2023-05-10T03:04:09;10.70;99.90
33811;DHT22;20119;48.334;16.206;2023-05-10T03:06:53;10.80;99.90
33811;DHT22;20119;48.334;16.206;2023-05-10T03:09:31;10.80;99.90
33811;DHT22;20119;48.334;16.206;2023-05-10T03:12:10;10.80;99.90
33811;DHT22;20119;48.334;16.206;2023-05-10T03:14:53;10.80;99.90
33811;DHT22;20119;48.334;16.206;2023-05-10T03:17:30;10.80;99.90
33811;DHT22;20119;48.334;16.206;2023-05-10T03:20:08;10.80;99.90
33811;DHT22;20119;48.334;16.206;2023-05-10T03:22:50;10.70;99.90
33811;DHT22;20119;48.334;16.206;2023-05-10T03:25:24;10.70;99.90
33811;DHT22;20119;48.334;16.206;2023-05-10T03:28:00;10.80;99.90
33811;DHT22;20119;48.334;16.206;2023-05-10T03:30:30;10.70;99.90
33811;DHT22;20119;48.334;16.206;2023-05-10T03:33:04;10.70;99.90
33811;DHT22;20119;48.334;16.206;2023-05-10T03:35:35;10.70;99.90
33811;DHT22;20119;48.334;16.206;2023-05-10T03:38:07;10.60;99.90
33811;DHT22;20119;48.334;16.206;2023-05-10T03:40:43;10.60;99.90
33811;DHT22;20119;48.334;16.206;2023-05-10T03:43:20;10.60;99.90
33811;DHT22;20119;48.334;16.206;2023-05-10T03:45:58;10.60;99.90
33811;DHT22;20119;48.334;16.206;2023-05-10T03:48:31;10.60;99.90
33811;DHT22;20119;48.334;16.206;2023-05-10T03:51:05;10.60;99.90
33811;DHT22;20119;48.334;16.206;2023-05-10T03:53:42;10.60;99.90
33811;DHT22;20119;48.334;16.206;2023-05-10T03:56:16;10.60;99.90
33811;DHT22;20119;48.334;16.206;2023-05-10T03:58:52;10.70;99.90
33811;DHT22;20119;48.334;16.206;2023-05-10T04:01:26;10.80;99.90
33811;DHT22;20119;48.334;16.206;2023-05-10T04:03:57;10.90;99.90
33811;DHT22;20119;48.334;16.206;2023-05-10T04:06:37;10.90;99.90
33811;DHT22;20119;48.334;16.206;2023-05-10T04:09:21;11.10;99.90
33811;DHT22;20119;48.334;16.206;2023-05-10T04:12:02;11.30;99.90
33811;DHT22;20119;48.334;16.206;2023-05-10T04:14:39;11.50;99.90
33811;DHT22;20119;48.334;16.206;2023-05-10T04:17:13;11.50;99.90
33811;DHT22;20119;48.334;16.206;2023-05-10T04:19:46;11.80;99.90
33811;DHT22;20119;48.334;16.206;2023-05-10T04:22:16;11.70;99.90
33811;DHT22;20119;48.334;16.206;2023-05-10T04:24:48;11.80;99.90
33811;DHT22;20119;48.334;16.206;2023-05-10T04:27:16;12.20;99.90
33811;DHT22;20119;48.334;16.206;2023-05-10T04:29:45;12.10;99.90
33811;DHT22;20119;48.334;16.206;2023-05-10T04:32:13;12.50;99.90
33811;DHT22;20119;48.334;16.206;2023-05-10T04:34:42;12.50;99.90
33811;DHT22;20119;48.334;16.206;2023-05-10T04:37:12;12.50;99.90
33811;DHT22;20119;48.334;16.206;2023-05-10T04:39:41;12.70;99.90
33811;DHT22;20119;48.334;16.206;2023-05-10T04:42:18;12.70;99.90
33811;DHT22;20119;48.334;16.206;2023-05-10T04:44:47;12.70;99.90
33811;DHT22;20119;48.334;16.206;2023-05-10T04:47:15;13.10;99.90
33811;DHT22;20119;48.334;16.206;2023-05-10T04:49:46;13.30;99.90
33811;DHT22;20119;48.334;16.206;2023-05-10T04:52:22;13.40;99.90
33811;DHT22;20119;48.334;16.206;2023-05-10T04:54:51;13.70;99.90
33811;DHT22;20119;48.334;16.206;2023-05-10T04:57:27;13.60;99.90
33811;DHT22;20119;48.334;16.206;2023-05-10T04:59:57;13.80;99.90
33811;DHT22;20119;48.334;16.206;2023-05-10T05:02:26;14.10;99.90
33811;DHT22;20119;48.334;16.206;2023-05-10T05:05:02;13.90;99.90
33811;DHT22;20119;48.334;16.206;2023-05-10T05:07:37;13.90;99.90
33811;DHT22;20119;48.334;16.206;2023-05-10T05:10:07;14.20;99.90
33811;DHT22;20119;48.334;16.206;2023-05-10T05:12:41;14.00;99.90
33811;DHT22;20119;48.334;16.206;2023-05-10T05:15:10;14.50;99.90
33811;DHT22;20119;48.334;16.206;2023-05-10T05:17:39;14.80;99.90
33811;DHT22;20119;48.334;16.206;2023-05-10T05:20:13;14.60;99.90
33811;DHT22;20119;48.334;16.206;2023-05-10T05:22:47;14.60;99.90
33811;DHT22;20119;48.334;16.206;2023-05-10T05:25:16;14.60;99.90
33811;DHT22;20119;48.334;16.206;2023-05-10T05:27:51;14.70;99.90
33811;DHT22;20119;48.334;16.206;2023-05-10T05:30:21;15.00;99.90
33811;DHT22;20119;48.334;16.206;2023-05-10T05:32:50;15.40;99.90
33811;DHT22;20119;48.334;16.206;2023-05-10T05:35:22;15.70;99.90
33811;DHT22;20119;48.334;16.206;2023-05-10T05:37:54;15.40;99.90
33811;DHT22;20119;48.334;16.206;2023-05-10T05:40:26;15.30;99.90
33811;DHT22;20119;48.334;16.206;2023-05-10T05:42:56;15.60;99.90
33811;DHT22;20119;48.334;16.206;2023-05-10T05:45:23;15.50;99.90
33811;DHT22;20119;48.334;16.206;2023-05-10T05:47:52;15.20;99.90
33811;DHT22;20119;48.334;16.206;2023-05-10T05:50:22;15.40;99.90
33811;DHT22;20119;48.334;16.206;2023-05-10T05:52:50;15.40;99.90
33811;DHT22;20119;48.334;16.206;2023-05-10T05:55:20;15.70;99.90
33811;DHT22;20119;48.334;16.206;2023-05-10T05:57:48;15.80;99.90
33811;DHT22;20119;48.334;16.206;2023-05-10T06:00:21;15.80;99.90
33811;DHT22;20119;48.334;16.206;2023-05-10T06:02:51;16.10;99.90
33811;DHT22;20119;48.334;16.206;2023-05-10T06:05:19;16.30;99.90
33811;DHT22;20119;48.334;16.206;2023-05-10T06:07:49;16.30;99.90
33811;DHT22;20119;48.334;16.206;2023-05-10T06:10:18;16.70;99.90
33811;DHT22;20119;48.334;16.206;2023-05-10T06:12:49;16.70;99.90
33811;DHT22;20119;48.334;16.206;2023-05-10T17:25:17;18.10;99.90
33811;DHT22;20119;48.334;16.206;2023-05-10T18:36:00;16.50;99.90
